Time;durP1;ratioP1;P1;durP2;ratioP2;P2;SDS_P1;SDS_P2;PMS_P1;PMS_P2;Temp;Humidity;BMP_temperature;BMP_pressure;BME280_temperature;BME280_humidity;BME280_pressure;Samples;Min_cycle;Max_cycle;Signal;HPM_P1;HPM_P2
2022/03/14 00:00:08;;;;;;;6.93;4.30;;;3.60;60.10;;;;;;4976117;28;20198;-80
2022/03/14 00:02:34;;;;;;;8.63;5.40;;;3.50;60.20;;;;;;4976089;28;20254;-80
2022/03/14 00:05:03;;;;;;;6.90;4.60;;;3.50;60.20;;;;;;4976680;28;20768;-80
2022/03/14 00:07:30;;;;;;;7.83;4.67;;;3.60;60.00;;;;;;4976054;28;21001;-79
2022/03/14 00:09:55;;;;;;;6.77;3.80;;;3.70;59.50;;;;;;4975893;28;20409;-79
2022/03/14 00:12:23;;;;;;;8.57;5.07;;;3.70;59.40;;;;;;4975120;28;20484;-80
2022/03/14 00:14:53;;;;;;;6.57;4.70;;;3.80;59.20;;;;;;4958320;28;20171;-79
2022/03/14 00:17:19;;;;;;;9.17;5.77;;;3.80;59.00;;;;;;4957956;28;21029;-80
2022/03/14 00:19:46;;;;;;;4.90;3.20;;;3.70;59.30;;;;;;4975074;28;20437;-79
2022/03/14 00:22:11;;;;;;;11.40;4.60;;;3.70;59.40;;;;;;4958228;28;20971;-79
2022/03/14 00:24:37;;;;;;;7.17;4.83;;;;;;;;;;4957921;28;20425;-79
2022/03/14 00:27:03;;;;;;;6.90;4.20;;;3.60;59.60;;;;;;4957924;28;20598;-78
2022/03/14 00:29:28;;;;;;;7.40;4.43;;;3.50;59.70;;;;;;4957656;28;20422;-79
2022/03/14 00:31:54;;;;;;;6.47;4.63;;;3.60;59.60;;;;;;4957750;28;20261;-80
2022/03/14 00:34:20;;;;;;;5.43;3.20;;;3.60;59.80;;;;;;4957892;28;20190;-79
2022/03/14 00:36:45;;;;;;;7.30;4.10;;;3.50;59.80;;;;;;4957933;28;20202;-79
2022/03/14 00:39:11;;;;;;;5.00;3.50;;;3.40;60.00;;;;;;4957923;28;20177;-80
2022/03/14 00:41:36;;;;;;;5.87;3.80;;;3.40;60.10;;;;;;4958202;28;20190;-79
2022/03/14 00:44:03;;;;;;;7.07;4.40;;;3.20;60.60;;;;;;4958174;28;20544;-80
2022/03/14 00:46:29;;;;;;;5.10;3.50;;;3.00;61.20;;;;;;4975641;28;20181;-80
2022/03/14 00:48:55;;;;;;;5.40;3.83;;;3.20;61.00;;;;;;4958062;28;20864;-80
2022/03/14 00:51:21;;;;;;;8.00;4.67;;;3.10;61.00;;;;;;4957987;28;20222;-80
2022/03/14 00:53:47;;;;;;;6.73;4.93;;;3.00;61.20;;;;;;4967436;28;20410;-80
2022/03/14 00:56:12;;;;;;;8.00;5.07;;;2.90;61.70;;;;;;4974993;28;20457;-80
2022/03/14 00:58:38;;;;;;;6.53;4.47;;;;;;;;;;4958108;28;20174;-80
2022/03/14 05:01:52;;;;;;;5.13;4.40;;;1.70;67.40;;;;;;5278194;23;20505;-78
2022/03/14 05:04:18;;;;;;;7.90;5.80;;;1.70;67.50;;;;;;4923886;29;20787;-78
2022/03/14 05:06:44;;;;;;;9.60;6.07;;;1.70;67.60;;;;;;4924478;29;20179;-78
2022/03/14 05:09:10;;;;;;;9.37;5.60;;;1.70;67.50;;;;;;4939890;29;20852;-78
2022/03/14 05:11:38;;;;;;;10.30;4.50;;;1.60;67.90;;;;;;4940499;29;20462;-79
2022/03/14 05:14:09;;;;;;;11.67;6.93;;;1.60;67.90;;;;;;4940941;29;20172;-79
2022/03/14 05:16:35;;;;;;;9.43;5.17;;;1.60;68.00;;;;;;4946791;29;20462;-77
2022/03/14 05:19:00;;;;;;;10.03;4.77;;;1.70;67.90;;;;;;4937407;29;20805;-77
2022/03/14 05:21:26;;;;;;;9.57;4.90;;;1.60;68.10;;;;;;4937870;29;20431;-76
2022/03/14 05:23:53;;;;;;;10.40;5.20;;;1.50;68.50;;;;;;4937866;29;20187;-76
2022/03/14 05:26:18;;;;;;;9.87;5.20;;;1.50;68.40;;;;;;4920770;29;20267;-76
2022/03/14 05:28:44;;;;;;;6.90;4.50;;;1.60;68.20;;;;;;4937300;29;20510;-75
2022/03/14 05:31:10;;;;;;;7.93;4.83;;;1.60;68.20;;;;;;4937614;29;20291;-76
2022/03/14 05:33:35;;;;;;;9.60;4.27;;;1.70;67.90;;;;;;4920659;29;20176;-75
2022/03/14 05:36:01;;;;;;;9.37;4.93;;;;;;;;;;4937628;29;20956;-78
2022/03/14 05:38:28;;;;;;;6.77;4.37;;;2.00;67.60;;;;;;4936996;29;20167;-76
2022/03/14 05:40:54;;;;;;;5.23;3.47;;;2.20;66.70;;;;;;4937653;29;20498;-75
2022/03/14 05:43:21;;;;;;;7.43;4.90;;;2.40;66.80;;;;;;4920449;29;20506;-76
2022/03/14 05:45:46;;;;;;;9.03;5.00;;;2.60;66.10;;;;;;4937523;29;20516;-77
2022/03/14 05:48:12;;;;;;;15.00;6.33;;;2.80;65.80;;;;;;4919031;29;20435;-76
2022/03/14 05:50:37;;;;;;;6.20;4.90;;;2.90;65.60;;;;;;4937488;29;20199;-76
2022/03/14 05:53:03;;;;;;;20.20;5.80;;;2.80;65.60;;;;;;4937478;29;20180;-76
2022/03/14 05:55:29;;;;;;;7.00;5.20;;;3.10;64.90;;;;;;4937458;29;20174;-76
2022/03/14 05:57:54;;;;;;;8.47;5.83;;;3.10;64.90;;;;;;4937306;29;20254;-77
2022/03/14 06:00:24;;;;;;;10.17;5.27;;;3.50;64.20;;;;;;4937166;29;20686;-76
2022/03/14 06:02:51;;;;;;;8.60;5.27;;;3.40;64.20;;;;;;4920327;29;20250;-77
2022/03/14 06:05:22;;;;;;;7.27;4.80;;;3.50;64.20;;;;;;4937383;29;20423;-77
2022/03/14 06:07:47;;;;;;;15.63;5.83;;;4.10;63.50;;;;;;4936955;29;20431;-76
2022/03/14 06:10:16;;;;;;;9.23;6.10;;;4.20;62.60;;;;;;4936104;29;20450;-76
2022/03/14 06:12:43;;;;;;;14.77;6.50;;;4.20;62.80;;;;;;4936997;29;20202;-76
2022/03/14 06:15:12;;;;;;;10.53;6.87;;;4.60;62.10;;;;;;4937075;29;20423;-77
2022/03/14 06:17:41;;;;;;;11.10;6.17;;;4.60;62.20;;;;;;4936856;29;20466;-76
2022/03/14 06:20:08;;;;;;;14.80;6.70;;;4.80;61.90;;;;;;4937200;29;20411;-77
2022/03/14 06:22:38;;;;;;;15.33;8.00;;;4.90;61.60;;;;;;4936855;29;20435;-76
2022/03/14 06:25:04;;;;;;;9.83;6.80;;;5.20;61.10;;;;;;4937054;29;20415;-76
2022/03/14 06:27:30;;;;;;;12.07;7.83;;;5.40;60.80;;;;;;4936563;29;20920;-76
2022/03/14 06:29:56;;;;;;;9.27;6.90;;;5.60;60.10;;;;;;4936851;29;20419;-76
2022/03/14 06:32:21;;;;;;;11.17;7.67;;;5.50;60.30;;;;;;4936686;29;20203;-76
2022/03/14 06:34:47;;;;;;;9.97;5.80;;;5.60;60.00;;;;;;4928745;29;20499;-77
2022/03/14 06:37:12;;;;;;;11.63;7.20;;;6.00;59.80;;;;;;4936480;29;20665;-75
2022/03/14 06:39:38;;;;;;;7.73;5.30;;;6.40;58.80;;;;;;4919312;29;20259;-77
2022/03/14 06:42:09;;;;;;;9.97;5.67;;;6.70;57.90;;;;;;4936356;29;20203;-76
2022/03/14 06:44:39;;;;;;;16.70;7.10;;;7.10;57.70;;;;;;4936557;29;20227;-76
2022/03/14 06:47:14;;;;;;;9.63;6.33;;;6.70;58.00;;;;;;4936399;29;20585;-76
2022/03/14 06:49:42;;;;;;;8.40;5.77;;;7.00;57.70;;;;;;4936209;29;20426;-78
2022/03/14 06:52:08;;;;;;;8.33;6.33;;;7.50;57.30;;;;;;4931977;29;20448;-78
2022/03/14 06:54:33;;;;;;;13.27;8.40;;;8.30;55.90;;;;;;4914021;29;20439;-79
2022/03/14 06:56:59;;;;;;;16.87;9.00;;;8.80;55.30;;;;;;4927559;29;20275;-77
2022/03/14 06:59:25;;;;;;;17.90;7.70;;;8.40;55.50;;;;;;4929875;29;20195;-77
2022/03/14 07:01:50;;;;;;;20.70;10.90;;;9.90;54.20;;;;;;4923442;29;20211;-77
2022/03/14 07:04:16;;;;;;;17.93;10.50;;;10.20;53.70;;;;;;4915542;29;20228;-78
2022/03/14 07:06:42;;;;;;;12.17;8.37;;;10.60;51.60;;;;;;4916991;29;20786;-78
2022/03/14 07:09:09;;;;;;;14.33;9.50;;;10.00;52.50;;;;;;4931799;29;20187;-77
2022/03/14 07:11:34;;;;;;;12.97;7.57;;;10.90;51.70;;;;;;4935200;29;20440;-78
2022/03/14 07:14:00;;;;;;;19.90;8.63;;;10.60;52.10;;;;;;4926905;29;20521;-80
2022/03/14 07:16:25;;;;;;;11.17;7.90;;;10.30;52.10;;;;;;4935889;29;20238;-77
2022/03/14 07:18:51;;;;;;;16.23;9.97;;;10.50;52.60;;;;;;4923796;29;20247;-77
2022/03/14 07:21:17;;;;;;;9.93;6.80;;;11.70;51.70;;;;;;4932272;29;20222;-78
2022/03/14 07:23:43;;;;;;;9.97;6.33;;;10.90;51.50;;;;;;4935722;29;20168;-78
2022/03/14 07:26:08;;;;;;;9.47;7.30;;;11.80;51.60;;;;;;4926751;29;20431;-79
2022/03/14 07:28:34;;;;;;;14.97;6.73;;;12.30;50.40;;;;;;4934877;29;20575;-75
2022/03/14 07:31:00;;;;;;;12.77;7.80;;;11.40;50.30;;;;;;4910757;29;20206;-75
2022/03/14 07:33:25;;;;;;;9.57;7.40;;;10.80;52.10;;;;;;4916474;29;20235;-75
2022/03/14 07:35:51;;;;;;;10.47;6.07;;;11.50;51.70;;;;;;4924280;29;20535;-76
2022/03/14 07:38:17;;;;;;;13.27;9.60;;;11.80;50.80;;;;;;4919919;29;20319;-75
2022/03/14 07:40:42;;;;;;;11.33;8.70;;;12.70;50.20;;;;;;4935361;29;20195;-75
2022/03/14 07:43:08;;;;;;;15.90;9.43;;;12.40;49.90;;;;;;4925595;29;20179;-75
2022/03/14 07:45:34;;;;;;;16.00;8.17;;;12.30;49.30;;;;;;4931178;29;20251;-75
2022/03/14 07:48:00;;;;;;;14.40;8.63;;;12.40;49.80;;;;;;4916705;29;20289;-75
2022/03/14 07:50:26;;;;;;;15.07;8.20;;;11.50;50.50;;;;;;4919864;29;20538;-75
2022/03/14 07:52:54;;;;;;;11.07;7.60;;;11.50;50.80;;;;;;4915199;29;20224;-77
2022/03/14 07:55:20;;;;;;;8.20;5.80;;;10.60;51.90;;;;;;4921829;29;20418;-77
2022/03/14 07:57:46;;;;;;;10.13;7.57;;;10.00;53.20;;;;;;4916010;29;20468;-77
2022/03/14 08:00:14;;;;;;;10.40;6.57;;;9.40;53.70;;;;;;4916136;29;20180;-78
2022/03/14 08:02:40;;;;;;;10.43;6.20;;;8.90;55.00;;;;;;4916237;29;20420;-78
2022/03/14 08:05:08;;;;;;;14.37;6.97;;;8.60;55.50;;;;;;4916045;29;20419;-77
2022/03/14 08:07:34;;;;;;;16.10;7.50;;;8.60;56.60;;;;;;4915906;29;20195;-76
2022/03/14 08:10:00;;;;;;;8.47;6.73;;;8.50;56.00;;;;;;4899109;29;20416;-77
2022/03/14 08:12:26;;;;;;;11.53;6.77;;;8.40;56.90;;;;;;4899016;29;20443;-77
2022/03/14 08:14:51;;;;;;;10.63;6.33;;;8.40;57.20;;;;;;4916056;29;20416;-77
2022/03/14 08:17:18;;;;;;;11.33;6.67;;;8.40;57.50;;;;;;4915935;29;20287;-77
2022/03/14 08:19:44;;;;;;;10.87;6.57;;;8.30;57.70;;;;;;4898707;29;20187;-77
2022/03/14 08:22:10;;;;;;;10.43;6.23;;;8.20;57.30;;;;;;4898864;29;20436;-77
2022/03/14 08:24:35;;;;;;;8.53;6.63;;;8.00;57.40;;;;;;4915888;29;20405;-77
2022/03/14 08:27:01;;;;;;;8.87;6.00;;;8.10;58.30;;;;;;4917634;29;20183;-77
2022/03/14 08:29:28;;;;;;;12.43;6.47;;;;;;;;;;4917510;29;20179;-76
2022/03/14 08:31:54;;;;;;;13.30;7.70;;;8.40;58.70;;;;;;4907574;29;20200;-77
2022/03/14 08:34:20;;;;;;;7.53;5.77;;;8.50;57.60;;;;;;4915131;29;20415;-78
2022/03/14 08:36:46;;;;;;;8.23;6.37;;;8.40;57.30;;;;;;4898690;29;20547;-77
2022/03/14 08:39:11;;;;;;;11.40;7.30;;;8.40;58.70;;;;;;4915536;29;20451;-79
2022/03/14 08:41:37;;;;;;;11.07;6.70;;;8.70;58.10;;;;;;4915746;29;20572;-76
2022/03/14 08:44:04;;;;;;;10.90;6.30;;;9.00;58.40;;;;;;4898765;29;20524;-77
2022/03/14 08:46:30;;;;;;;10.73;6.97;;;9.30;57.80;;;;;;4915803;29;20263;-77
2022/03/14 08:48:56;;;;;;;9.37;5.50;;;9.20;56.80;;;;;;4910949;29;20909;-79
2022/03/14 08:51:22;;;;;;;9.80;6.40;;;9.40;57.70;;;;;;4917595;29;20218;-78
2022/03/14 08:53:48;;;;;;;8.47;6.33;;;9.50;56.50;;;;;;4923184;29;20807;-80
2022/03/14 08:56:13;;;;;;;12.03;6.50;;;9.80;55.80;;;;;;4908291;29;20608;-78
2022/03/14 08:58:39;;;;;;;8.57;6.20;;;10.20;55.10;;;;;;4911906;29;20177;-77
2022/03/14 09:01:05;;;;;;;12.53;7.03;;;;;;;;;;4929170;29;20567;-78
2022/03/14 09:03:31;;;;;;;9.00;6.33;;;10.10;54.50;;;;;;4925995;29;20176;-77
2022/03/14 09:05:57;;;;;;;8.90;5.53;;;9.90;54.10;;;;;;4915645;29;20412;-77
2022/03/14 09:08:24;;;;;;;7.90;6.27;;;9.80;55.90;;;;;;4915510;29;20263;-77
2022/03/14 09:10:53;;;;;;;9.30;5.60;;;10.50;54.90;;;;;;4915827;29;20196;-77
2022/03/14 09:13:21;;;;;;;9.50;6.20;;;11.10;55.20;;;;;;4915593;29;20401;-78
2022/03/14 09:15:48;;;;;;;8.33;5.80;;;11.60;53.00;;;;;;4915535;29;20467;-77
2022/03/14 09:18:14;;;;;;;10.27;6.70;;;11.70;52.40;;;;;;4915206;29;20420;-78
2022/03/14 09:20:41;;;;;;;8.57;5.83;;;12.00;52.10;;;;;;4914243;29;20476;-77
2022/03/14 09:23:10;;;;;;;7.30;6.30;;;11.70;52.30;;;;;;4921018;29;20420;-77
2022/03/14 09:25:36;;;;;;;6.43;5.20;;;11.50;52.40;;;;;;4934419;29;20439;-77
2022/03/14 09:28:02;;;;;;;8.10;5.77;;;11.60;52.20;;;;;;4934176;29;20921;-78
2022/03/14 09:30:27;;;;;;;8.13;6.03;;;11.70;53.60;;;;;;4934199;29;20164;-77
2022/03/14 09:32:54;;;;;;;10.70;7.33;;;11.30;53.20;;;;;;4916090;29;20941;-78
2022/03/14 09:35:22;;;;;;;7.97;5.73;;;11.30;53.70;;;;;;4915740;29;20231;-77
2022/03/14 09:37:49;;;;;;;8.93;6.27;;;11.10;53.70;;;;;;4915277;29;20555;-78
2022/03/14 09:40:20;;;;;;;9.57;6.27;;;10.70;53.40;;;;;;4934251;29;20463;-77
2022/03/14 09:42:48;;;;;;;9.20;6.70;;;10.80;55.00;;;;;;4934412;29;20475;-79
2022/03/14 09:45:15;;;;;;;11.20;7.20;;;10.90;54.50;;;;;;4935510;29;20499;-77
2022/03/14 09:47:45;;;;;;;8.90;6.20;;;10.80;55.10;;;;;;4919831;29;20438;-77
2022/03/14 09:50:32;;;;;;;11.70;5.77;;;11.00;53.90;;;;;;4937830;29;20754;-77
2022/03/14 09:53:01;;;;;;;11.07;7.03;;;10.70;55.50;;;;;;4936976;29;20435;-79
2022/03/14 09:55:27;;;;;;;10.73;6.80;;;10.50;55.80;;;;;;4916992;29;20468;-77
2022/03/14 09:57:53;;;;;;;9.50;6.03;;;10.20;56.10;;;;;;4916114;29;20476;-79
2022/03/14 10:00:19;;;;;;;9.87;6.80;;;10.20;55.80;;;;;;4916664;29;20428;-77
2022/03/14 10:02:45;;;;;;;9.83;7.40;;;10.10;56.80;;;;;;4927071;29;20180;-78
2022/03/14 10:05:13;;;;;;;10.20;7.53;;;9.80;56.90;;;;;;4932219;29;20175;-77
2022/03/14 10:07:40;;;;;;;9.83;6.90;;;9.80;57.40;;;;;;4937237;29;20415;-78
2022/03/14 10:10:06;;;;;;;9.40;6.53;;;9.70;57.90;;;;;;4915892;29;20531;-80
2022/03/14 10:12:33;;;;;;;12.00;7.10;;;9.80;57.80;;;;;;4901985;29;20501;-79
2022/03/14 10:15:01;;;;;;;8.07;6.13;;;9.70;57.60;;;;;;4919104;29;20440;-78
2022/03/14 10:17:27;;;;;;;10.80;6.87;;;9.50;57.90;;;;;;4932337;29;20501;-77
2022/03/14 10:20:01;;;;;;;12.03;6.60;;;9.70;59.10;;;;;;4937161;29;20443;-76
2022/03/14 10:22:35;;;;;;;8.87;6.27;;;9.90;58.10;;;;;;4919296;29;20534;-80
2022/03/14 10:25:10;;;;;;;12.10;6.90;;;10.00;58.20;;;;;;4938821;29;20423;-80
2022/03/14 10:27:37;;;;;;;21.13;6.50;;;10.20;59.50;;;;;;4921401;29;20775;-81
2022/03/14 10:30:05;;;;;;;9.67;6.90;;;10.30;59.20;;;;;;4937289;29;20951;-80
2022/03/14 10:32:31;;;;;;;9.13;6.20;;;10.60;60.90;;;;;;4919721;29;20451;-77
2022/03/14 10:35:07;;;;;;;9.00;6.57;;;10.80;60.70;;;;;;4919879;29;20479;-77
2022/03/14 10:37:36;;;;;;;8.90;6.30;;;10.80;60.10;;;;;;4919615;29;20526;-77
2022/03/14 10:40:09;;;;;;;10.80;7.00;;;10.70;61.00;;;;;;4937883;29;20491;-80
2022/03/14 10:42:43;;;;;;;11.77;7.00;;;10.40;61.60;;;;;;4938537;29;20443;-80
2022/03/14 10:45:15;;;;;;;11.30;7.67;;;10.20;61.90;;;;;;4938456;29;20431;-80
2022/03/14 10:47:57;;;;;;;14.23;8.37;;;10.60;62.00;;;;;;4935469;29;20427;-80
2022/03/14 10:50:40;;;;;;;10.23;7.03;;;10.80;61.70;;;;;;4913568;29;20859;-79
2022/03/14 10:53:07;;;;;;;10.33;7.43;;;11.00;62.20;;;;;;4944190;29;20498;-79
2022/03/14 10:55:45;;;;;;;8.80;6.57;;;11.50;62.50;;;;;;4925414;29;20432;-80
2022/03/14 10:58:23;;;;;;;14.80;6.90;;;11.80;61.70;;;;;;4932172;29;20510;-79
2022/03/14 11:00:51;;;;;;;12.37;6.90;;;11.70;60.20;;;;;;4929761;29;20467;-80
2022/03/14 11:03:39;;;;;;;10.73;8.00;;;11.60;59.40;;;;;;4907266;29;20508;-80
2022/03/14 11:06:16;;;;;;;8.70;6.90;;;11.70;61.20;;;;;;4919027;29;20416;-80
2022/03/14 11:08:47;;;;;;;11.57;7.13;;;12.20;61.80;;;;;;4911973;29;20430;-79
2022/03/14 11:11:20;;;;;;;11.27;7.03;;;13.20;60.70;;;;;;4924266;29;20459;-80
2022/03/14 11:13:55;;;;;;;9.43;7.73;;;14.30;58.80;;;;;;4918247;29;20518;-80
2022/03/14 11:16:29;;;;;;;9.77;6.30;;;14.30;55.80;;;;;;4936056;29;20471;-80
2022/03/14 11:18:56;;;;;;;12.50;7.10;;;13.40;55.70;;;;;;4918323;29;20454;-80
2022/03/14 11:23:57;;;;;;;12.27;8.20;;;13.30;57.90;;;;;;5201893;23;20494;-77
2022/03/14 11:26:25;;;;;;;12.03;8.00;;;12.70;58.00;;;;;;4918728;29;20439;-77
2022/03/14 11:28:53;;;;;;;8.77;7.13;;;11.80;59.70;;;;;;4945329;29;20242;-78
2022/03/14 11:31:20;;;;;;;10.77;7.60;;;11.70;60.50;;;;;;4933894;29;21003;-80
2022/03/14 11:33:47;;;;;;;10.03;7.00;;;11.40;61.50;;;;;;4944891;29;20498;-80
2022/03/14 11:36:17;;;;;;;9.77;7.10;;;11.60;63.00;;;;;;4957511;29;20915;-81
2022/03/14 11:38:43;;;;;;;13.90;10.10;;;11.60;65.60;;;;;;4960383;29;20927;-81
2022/03/14 11:41:10;;;;;;;12.63;8.30;;;11.40;66.90;;;;;;4963023;29;20431;-81
2022/03/14 11:43:38;;;;;;;10.30;8.23;;;11.40;67.90;;;;;;4960839;29;20438;-81
2022/03/14 11:46:03;;;;;;;10.17;8.03;;;11.40;67.80;;;;;;4945938;29;20426;-79
2022/03/14 11:48:32;;;;;;;12.80;8.60;;;11.20;66.90;;;;;;4946624;29;20849;-79
2022/03/14 11:51:03;;;;;;;14.17;8.97;;;11.30;70.50;;;;;;4943025;29;20294;-81
2022/03/14 11:53:31;;;;;;;16.33;9.10;;;11.20;71.40;;;;;;4960739;29;20980;-81
2022/03/14 11:55:59;;;;;;;10.27;8.10;;;10.90;74.70;;;;;;4943898;29;20458;-80
2022/03/14 11:59:00;;;;;;;13.27;8.67;;;10.70;77.80;;;;;;4944938;29;20418;-79
2022/03/14 12:01:29;;;;;;;9.93;8.23;;;10.50;80.80;;;;;;4963919;29;20426;-80
2022/03/14 12:04:02;;;;;;;13.70;9.90;;;10.50;82.40;;;;;;4945424;29;20431;-79
2022/03/14 12:07:05;;;;;;;9.63;8.20;;;10.30;83.60;;;;;;4923794;29;20452;-79
2022/03/14 12:09:31;;;;;;;12.27;9.30;;;10.50;85.20;;;;;;4915547;29;20440;-80
2022/03/14 12:11:59;;;;;;;10.90;8.30;;;11.00;84.60;;;;;;4938692;29;20807;-79
2022/03/14 12:14:46;;;;;;;11.90;8.93;;;11.30;84.70;;;;;;4923244;29;20219;-79
2022/03/14 12:17:15;;;;;;;11.60;8.80;;;11.50;84.70;;;;;;4927546;29;20542;-80
2022/03/14 12:19:47;;;;;;;11.73;7.87;;;11.50;85.00;;;;;;4939558;29;20420;-79
2022/03/14 12:22:15;;;;;;;14.30;8.40;;;11.60;84.10;;;;;;4943157;29;20435;-81
2022/03/14 12:24:47;;;;;;;11.87;8.30;;;11.60;83.40;;;;;;4942149;29;20938;-79
2022/03/14 12:27:19;;;;;;;13.10;8.67;;;11.50;85.10;;;;;;4940832;29;20502;-81
2022/03/14 12:29:46;;;;;;;10.30;8.00;;;12.20;83.10;;;;;;4939934;29;20429;-80
2022/03/14 12:32:32;;;;;;;11.10;8.67;;;12.00;81.70;;;;;;4941914;29;20465;-80
2022/03/14 12:35:00;;;;;;;11.33;8.63;;;12.00;81.70;;;;;;4925630;29;20506;-79
2022/03/14 12:37:35;;;;;;;12.13;7.87;;;11.80;77.00;;;;;;4925036;29;20486;-79
2022/03/14 12:40:05;;;;;;;11.90;9.90;;;11.30;77.40;;;;;;4926493;29;20439;-81
2022/03/14 12:42:42;;;;;;;16.70;8.10;;;11.00;77.30;;;;;;4942404;29;20439;-80
2022/03/14 12:45:17;;;;;;;10.70;8.70;;;10.90;77.30;;;;;;4924198;29;20423;-81
2022/03/14 12:47:57;;;;;;;11.03;8.20;;;10.70;78.90;;;;;;4949305;29;20475;-79
2022/03/14 12:50:46;;;;;;;16.40;8.43;;;10.70;78.80;;;;;;4945489;29;20430;-81
2022/03/14 12:53:38;;;;;;;10.77;8.20;;;10.30;80.10;;;;;;4953699;29;20476;-80
2022/03/14 12:56:14;;;;;;;14.07;8.77;;;10.20;80.60;;;;;;4949571;29;20494;-80
2022/03/14 12:58:54;;;;;;;10.37;7.33;;;10.20;82.20;;;;;;4940164;29;20829;-80
2022/03/14 13:01:20;;;;;;;10.30;8.33;;;10.00;82.90;;;;;;4942979;29;20442;-81
2022/03/14 13:03:46;;;;;;;9.77;7.30;;;9.90;84.40;;;;;;4928646;29;20957;-81
2022/03/14 13:06:12;;;;;;;9.20;6.97;;;9.80;85.20;;;;;;4939102;29;20191;-81
2022/03/14 13:08:46;;;;;;;7.20;5.90;;;9.50;88.70;;;;;;4926047;29;20426;-81
2022/03/14 13:11:11;;;;;;;6.43;5.20;;;9.30;91.60;;;;;;4945007;29;20271;-81
2022/03/14 13:13:38;;;;;;;5.97;4.00;;;9.10;94.40;;;;;;4945991;29;20419;-79
2022/03/14 13:16:12;;;;;;;14.53;4.47;;;9.00;96.30;;;;;;4928464;29;20196;-80
2022/03/14 13:18:49;;;;;;;2.63;2.27;;;8.90;96.30;;;;;;4927007;29;20928;-80
2022/03/14 13:21:26;;;;;;;5.50;2.47;;;8.70;96.30;;;;;;4941126;29;20438;-80
2022/03/14 13:23:58;;;;;;;2.20;2.00;;;8.80;96.30;;;;;;4940901;29;20480;-79
2022/03/14 13:26:24;;;;;;;3.60;1.93;;;9.00;96.30;;;;;;4933365;29;20427;-80
2022/03/14 13:28:52;;;;;;;2.17;1.63;;;8.80;96.30;;;;;;4945663;29;20430;-81
2022/03/14 13:31:29;;;;;;;1.63;1.53;;;8.70;96.30;;;;;;4966690;29;20441;-79
2022/03/14 13:33:55;;;;;;;3.23;1.93;;;8.60;96.30;;;;;;4948752;29;20453;-80
2022/03/14 13:36:21;;;;;;;2.77;1.83;;;8.70;96.30;;;;;;4947224;29;20482;-80
2022/03/14 13:38:51;;;;;;;1.80;1.50;;;8.70;96.30;;;;;;4964937;29;20171;-81
2022/03/14 13:41:26;;;;;;;1.87;1.67;;;9.10;96.30;;;;;;4966511;29;20940;-81
2022/03/14 13:43:53;;;;;;;2.33;1.73;;;9.30;96.30;;;;;;4950285;29;20418;-81
2022/03/14 13:46:25;;;;;;;2.30;1.70;;;9.30;96.30;;;;;;4947016;29;20431;-81
2022/03/14 13:48:52;;;;;;;1.67;1.57;;;9.30;96.30;;;;;;4963074;29;20410;-81
2022/03/14 13:51:20;;;;;;;2.50;1.67;;;9.40;96.30;;;;;;4945437;29;20984;-81
2022/03/14 13:53:47;;;;;;;2.10;1.67;;;9.30;96.30;;;;;;4964118;29;20423;-81
2022/03/14 13:56:12;;;;;;;1.63;1.50;;;9.30;96.30;;;;;;4966617;29;20446;-80
2022/03/14 13:58:39;;;;;;;3.53;2.13;;;9.00;96.30;;;;;;4966282;29;20418;-80
2022/03/14 14:01:04;;;;;;;4.20;1.43;;;9.00;96.30;;;;;;4947681;29;20194;-81
2022/03/14 14:03:31;;;;;;;2.30;1.83;;;8.90;96.30;;;;;;4964377;29;20406;-81
2022/03/14 14:06:16;;;;;;;1.60;1.33;;;8.80;96.30;;;;;;4965013;29;20190;-81
2022/03/14 14:08:42;;;;;;;1.70;1.50;;;8.60;96.30;;;;;;4947395;29;20426;-81
2022/03/14 14:11:22;;;;;;;1.83;1.73;;;8.60;96.30;;;;;;4965274;29;20435;-81
2022/03/14 14:13:49;;;;;;;4.47;1.43;;;8.50;96.30;;;;;;4965212;29;20438;-80
2022/03/14 14:16:20;;;;;;;2.20;1.50;;;8.40;96.30;;;;;;4965196;29;20458;-80
2022/03/14 14:19:06;;;;;;;2.40;1.60;;;8.40;96.30;;;;;;4965836;29;20414;-81
2022/03/14 14:21:31;;;;;;;1.70;1.07;;;8.30;96.30;;;;;;4948035;29;20458;-80
2022/03/14 14:23:57;;;;;;;3.53;1.30;;;;;;;;;;4948175;29;20442;-80
2022/03/14 14:26:30;;;;;;;2.23;1.10;;;8.20;96.30;;;;;;4946684;29;20190;-80
2022/03/14 14:28:56;;;;;;;1.90;1.50;;;8.10;96.30;;;;;;4946997;29;20239;-80
2022/03/14 14:31:21;;;;;;;2.23;1.13;;;7.90;96.30;;;;;;4947092;29;20454;-80
2022/03/14 14:33:47;;;;;;;1.40;0.90;;;7.90;96.30;;;;;;4964969;29;20210;-80
2022/03/14 14:36:12;;;;;;;2.17;1.33;;;7.70;96.30;;;;;;4948020;29;20199;-80
2022/03/14 14:38:38;;;;;;;1.40;1.10;;;7.70;96.30;;;;;;4964743;29;20175;-80
2022/03/14 14:41:06;;;;;;;1.30;1.10;;;7.50;96.30;;;;;;4964748;29;20755;-81
2022/03/14 14:43:32;;;;;;;1.30;1.10;;;7.50;96.30;;;;;;4952260;29;20183;-81
2022/03/14 14:46:00;;;;;;;1.43;1.10;;;7.40;96.30;;;;;;4952900;29;20423;-81
2022/03/14 14:48:26;;;;;;;0.97;0.77;;;7.30;96.30;;;;;;4953980;29;20419;-82
2022/03/14 14:50:52;;;;;;;1.20;1.00;;;7.20;96.30;;;;;;4956805;29;20438;-81
2022/03/14 14:53:21;;;;;;;1.17;0.97;;;6.90;96.30;;;;;;4974036;29;20414;-81
2022/03/14 14:55:47;;;;;;;1.00;0.73;;;6.80;96.30;;;;;;4956484;29;20429;-80
2022/03/14 14:58:14;;;;;;;1.10;0.90;;;6.80;96.30;;;;;;4956408;29;20454;-80
2022/03/14 15:00:45;;;;;;;1.93;1.53;;;6.80;96.30;;;;;;4953342;29;20446;-84
2022/03/14 15:03:11;;;;;;;3.20;1.10;;;6.80;96.30;;;;;;4954846;29;20486;-82
2022/03/14 15:05:37;;;;;;;2.00;1.30;;;6.80;96.30;;;;;;4950912;29;20423;-81
2022/03/14 15:08:04;;;;;;;1.40;1.10;;;6.60;96.30;;;;;;4967604;29;20265;-82
2022/03/14 15:10:30;;;;;;;1.57;1.17;;;6.50;96.30;;;;;;4950120;29;20452;-79
2022/03/14 15:12:55;;;;;;;1.20;1.07;;;6.40;96.30;;;;;;4949599;29;20430;-79
2022/03/14 15:15:21;;;;;;;1.37;1.20;;;6.40;96.30;;;;;;4949139;29;20182;-81
2022/03/14 15:17:51;;;;;;;1.57;1.43;;;6.30;96.30;;;;;;4950866;29;20221;-81
2022/03/14 15:20:17;;;;;;;1.70;1.33;;;6.30;96.30;;;;;;4952284;29;20419;-80
2022/03/14 15:22:44;;;;;;;1.53;1.23;;;6.30;96.30;;;;;;4968902;29;20445;-80
2022/03/14 15:25:11;;;;;;;1.77;1.33;;;6.30;96.30;;;;;;4970797;29;20423;-81
2022/03/14 15:27:37;;;;;;;1.30;1.20;;;6.30;96.30;;;;;;4953474;29;20450;-80
2022/03/14 15:30:09;;;;;;;2.07;1.40;;;6.30;96.30;;;;;;4951782;29;20791;-80
2022/03/14 15:32:34;;;;;;;2.33;1.50;;;6.30;96.30;;;;;;4951838;29;20518;-80
2022/03/14 15:35:00;;;;;;;1.53;1.43;;;6.10;96.30;;;;;;4969349;29;20427;-81
2022/03/14 15:37:27;;;;;;;1.40;1.30;;;6.10;96.30;;;;;;4951736;29;20238;-86
2022/03/14 15:39:52;;;;;;;1.60;1.20;;;6.00;96.30;;;;;;4951461;29;20557;-81
2022/03/14 15:42:18;;;;;;;1.20;0.90;;;5.80;96.30;;;;;;4967848;28;20442;-80
2022/03/14 15:44:47;;;;;;;1.03;0.80;;;5.50;96.30;;;;;;4965471;29;20183;-79
2022/03/14 15:47:13;;;;;;;1.10;1.00;;;5.40;96.30;;;;;;4967316;29;20211;-80
2022/03/14 15:49:39;;;;;;;0.90;0.77;;;5.20;96.30;;;;;;4950478;29;20499;-80
2022/03/14 15:52:05;;;;;;;1.20;0.90;;;5.20;96.30;;;;;;4947970;29;20470;-80
2022/03/14 15:54:30;;;;;;;1.10;0.77;;;5.20;96.30;;;;;;4966000;29;20446;-78
2022/03/14 15:56:56;;;;;;;1.40;1.03;;;5.00;96.30;;;;;;4964911;29;20207;-79
2022/03/14 15:59:22;;;;;;;1.30;0.70;;;4.90;96.30;;;;;;4948117;29;20289;-76
2022/03/14 16:01:48;;;;;;;3.53;0.90;;;4.70;96.30;;;;;;4957190;29;20195;-77
2022/03/14 16:04:14;;;;;;;2.07;0.80;;;4.70;96.30;;;;;;4965996;29;20450;-76
2022/03/14 16:06:40;;;;;;;5.13;0.93;;;4.70;96.30;;;;;;4966702;29;20434;-76
2022/03/14 16:09:09;;;;;;;1.10;0.93;;;4.60;96.30;;;;;;4948675;29;20198;-76
2022/03/14 16:11:35;;;;;;;1.20;0.93;;;4.60;96.30;;;;;;4963488;29;20190;-76
2022/03/14 16:14:01;;;;;;;2.50;1.20;;;4.50;96.30;;;;;;4965325;29;20943;-77
2022/03/14 16:16:29;;;;;;;1.20;1.03;;;4.50;96.30;;;;;;4964515;29;20454;-78
2022/03/14 16:18:55;;;;;;;2.03;1.50;;;4.50;96.30;;;;;;4947278;29;20206;-76
2022/03/14 16:21:21;;;;;;;1.40;1.20;;;4.50;96.30;;;;;;4964723;29;20436;-79
2022/03/14 16:23:46;;;;;;;1.83;1.60;;;4.40;96.30;;;;;;4947576;29;20209;-76
2022/03/14 16:26:12;;;;;;;1.30;1.20;;;4.40;96.30;;;;;;4965160;29;20186;-76
2022/03/14 16:28:38;;;;;;;1.40;1.30;;;4.40;96.30;;;;;;4965478;29;20190;-77
2022/03/14 16:31:03;;;;;;;1.63;1.30;;;4.40;96.30;;;;;;4948595;29;20217;-78
2022/03/14 16:33:32;;;;;;;1.93;1.00;;;4.30;96.30;;;;;;4965233;29;20182;-77
2022/03/14 16:35:58;;;;;;;2.93;1.50;;;4.30;96.30;;;;;;4965839;29;20540;-79
2022/03/14 16:38:24;;;;;;;1.57;1.10;;;4.30;96.30;;;;;;4947834;29;20797;-78
2022/03/14 16:40:51;;;;;;;1.27;1.10;;;4.30;96.30;;;;;;4965466;29;20506;-80
2022/03/14 16:43:17;;;;;;;10.00;5.53;;;4.30;96.30;;;;;;4947395;29;20426;-77
2022/03/14 16:45:42;;;;;;;2.70;1.00;;;4.30;96.30;;;;;;4965888;29;20494;-77
2022/03/14 16:48:08;;;;;;;1.27;1.17;;;4.30;96.30;;;;;;4966752;29;20187;-79
2022/03/14 16:50:35;;;;;;;1.67;1.10;;;4.30;96.30;;;;;;4948017;29;20194;-80
2022/03/14 16:53:01;;;;;;;2.07;1.50;;;4.30;96.30;;;;;;4937739;29;20419;-77
2022/03/14 16:55:27;;;;;;;2.07;1.13;;;4.30;96.30;;;;;;4938399;29;20426;-78
2022/03/14 16:57:55;;;;;;;4.40;1.60;;;4.30;96.30;;;;;;4957362;29;20465;-78